createdAt,value
2022-09-15T00:00:47.194Z,23.90
2022-09-15T00:03:13.996Z,24.00
2022-09-15T00:05:40.780Z,23.80
2022-09-15T00:08:07.578Z,23.90
2022-09-15T00:10:34.653Z,24.20
2022-09-15T00:13:01.389Z,24.30
2022-09-15T00:15:28.174Z,24.30
2022-09-15T00:17:54.936Z,24.10
2022-09-15T00:20:21.802Z,24.00
2022-09-15T00:22:48.984Z,23.30
2022-09-15T00:25:15.772Z,23.50
2022-09-15T00:27:42.524Z,23.40
2022-09-15T00:30:09.518Z,23.60
2022-09-15T00:32:36.282Z,23.70
2022-09-15T00:35:03.075Z,23.70
2022-09-15T00:37:29.814Z,23.50
2022-09-15T00:39:56.662Z,23.60
2022-09-15T00:42:23.512Z,23.60
2022-09-15T00:44:53.371Z,23.60
2022-09-15T00:47:21.098Z,23.60
2022-09-15T00:49:48.894Z,23.80
2022-09-15T00:52:17.375Z,23.60
2022-09-15T00:54:49.096Z,23.60
2022-09-15T00:57:17.255Z,23.40
2022-09-15T00:59:44.020Z,23.70
2022-09-15T01:02:21.607Z,23.70
2022-09-15T01:04:49.070Z,23.40
2022-09-15T01:07:16.854Z,23.30
2022-09-15T01:09:49.612Z,23.20
2022-09-15T01:12:16.533Z,23.10
2022-09-15T01:14:43.369Z,23.00
2022-09-15T01:20:32.256Z,23.10
2022-09-15T01:23:21.842Z,23.00
2022-09-15T01:25:58.623Z,23.00
2022-09-15T01:28:30.207Z,23.00
2022-09-15T01:31:20.130Z,23.10
2022-09-15T01:33:52.562Z,23.00
2022-09-15T01:36:20.243Z,22.90
2022-09-15T01:38:47.413Z,23.00
2022-09-15T01:41:18.122Z,23.00
2022-09-15T01:43:51.831Z,23.30
2022-09-15T01:46:19.236Z,23.20
2022-09-15T01:48:45.989Z,22.80
2022-09-15T01:51:13.051Z,22.70
2022-09-15T01:53:39.798Z,22.20
2022-09-15T01:56:07.285Z,22.30
2022-09-15T01:58:34.184Z,22.40
2022-09-15T02:01:03.135Z,22.40
2022-09-15T02:03:33.773Z,22.10
2022-09-15T02:06:04.452Z,22.10
2022-09-15T02:08:34.368Z,22.40
2022-09-15T02:11:07.299Z,22.60
2022-09-15T02:14:03.792Z,22.40
2022-09-15T02:16:32.685Z,22.50
2022-09-15T02:19:35.009Z,22.60
2022-09-15T02:22:07.891Z,22.30
2022-09-15T02:24:37.326Z,22.40
2022-09-15T02:27:04.405Z,21.90
2022-09-15T02:29:31.892Z,22.00
2022-09-15T02:32:03.742Z,22.00
2022-09-15T02:34:34.956Z,22.00
2022-09-15T02:37:01.707Z,22.00
2022-09-15T02:39:30.683Z,21.70
2022-09-15T02:41:57.616Z,21.70
2022-09-15T02:44:24.365Z,21.70
2022-09-15T02:46:51.509Z,21.80
2022-09-15T02:49:20.193Z,21.80
2022-09-15T02:51:46.944Z,21.90
2022-09-15T02:54:13.888Z,22.00
2022-09-15T02:56:41.140Z,21.80
2022-09-15T02:59:07.918Z,21.50
2022-09-15T03:01:35.032Z,21.50
2022-09-15T03:04:02.404Z,21.30
2022-09-15T03:06:34.431Z,21.30
2022-09-15T03:09:02.458Z,21.20
2022-09-15T03:11:29.820Z,21.40
2022-09-15T03:13:57.290Z,21.50
2022-09-15T03:16:24.274Z,21.10
2022-09-15T03:18:51.055Z,21.20
2022-09-15T03:21:18.636Z,21.40
2022-09-15T03:23:45.648Z,21.20
2022-09-15T03:26:12.526Z,21.40
2022-09-15T03:28:39.790Z,21.50
2022-09-15T03:31:07.045Z,21.50
2022-09-15T03:33:34.007Z,21.20
2022-09-15T03:36:00.905Z,21.30
2022-09-15T03:38:27.628Z,21.30
2022-09-15T03:40:58.375Z,21.30
2022-09-15T03:43:25.765Z,21.30
2022-09-15T03:45:52.788Z,21.00
2022-09-15T03:48:19.633Z,21.00
2022-09-15T03:50:46.396Z,21.20
2022-09-15T03:53:13.143Z,21.30
2022-09-15T03:55:39.949Z,21.60
2022-09-15T03:58:06.672Z,21.50
2022-09-15T04:00:34.250Z,21.80
2022-09-15T04:03:01.029Z,21.60
2022-09-15T04:05:27.782Z,21.70
2022-09-15T04:07:54.604Z,21.70
2022-09-15T04:10:23.340Z,21.60
2022-09-15T04:12:51.570Z,21.90
2022-09-15T04:15:18.877Z,22.10
2022-09-15T04:17:45.857Z,22.10
2022-09-15T04:20:12.751Z,22.00
2022-09-15T04:22:39.495Z,22.00
2022-09-15T04:25:06.508Z,22.00
2022-09-15T04:27:35.725Z,22.00
2022-09-15T04:30:02.501Z,22.20
2022-09-15T04:32:29.277Z,21.90
2022-09-15T04:34:56.072Z,22.00
2022-09-15T04:37:23.180Z,22.20
2022-09-15T04:39:49.984Z,22.30
2022-09-15T04:42:16.778Z,22.40
2022-09-15T04:44:43.521Z,22.40
2022-09-15T04:47:10.313Z,22.60
2022-09-15T04:49:37.088Z,22.70
2022-09-15T04:52:06.663Z,22.80
2022-09-15T04:54:36.011Z,22.70
2022-09-15T04:57:02.972Z,23.20
2022-09-15T04:59:29.721Z,23.60
2022-09-15T05:01:56.563Z,23.90
2022-09-15T05:04:23.396Z,24.10
2022-09-15T05:06:50.151Z,24.60
2022-09-15T05:09:16.933Z,25.00
2022-09-15T05:11:43.674Z,25.10
2022-09-15T05:14:10.820Z,25.20
2022-09-15T05:16:37.702Z,25.30
2022-09-15T05:19:04.843Z,25.60
2022-09-15T05:21:31.603Z,25.60
2022-09-15T05:23:58.406Z,25.70
2022-09-15T05:26:25.911Z,25.60
2022-09-15T05:28:52.825Z,25.40
2022-09-15T05:31:19.698Z,24.80
2022-09-15T05:33:46.833Z,24.60
2022-09-15T05:36:17.499Z,24.40
2022-09-15T05:38:44.385Z,24.30
2022-09-15T05:41:11.602Z,24.10
2022-09-15T05:43:38.741Z,24.40
2022-09-15T05:46:05.771Z,24.40
2022-09-15T05:48:32.775Z,24.50
2022-09-15T05:50:59.569Z,24.70
2022-09-15T05:53:26.391Z,24.60
2022-09-15T05:55:56.893Z,24.40
2022-09-15T05:58:23.863Z,24.60
2022-09-15T06:00:50.795Z,24.60
2022-09-15T06:03:17.699Z,24.50
2022-09-15T06:05:44.591Z,24.30
2022-09-15T06:08:11.322Z,23.90
2022-09-15T06:10:38.736Z,23.40
2022-09-15T06:13:05.550Z,23.20
2022-09-15T06:15:32.466Z,23.30
2022-09-15T06:17:59.219Z,23.40
2022-09-15T06:20:25.989Z,23.40
2022-09-15T06:22:52.976Z,23.40
2022-09-15T06:25:19.736Z,23.20
2022-09-15T06:27:48.534Z,23.40
2022-09-15T06:30:15.374Z,23.30
2022-09-15T06:32:47.407Z,23.40
2022-09-15T06:35:15.327Z,23.40
2022-09-15T06:37:42.071Z,23.20
2022-09-15T06:40:09.062Z,23.30
2022-09-15T06:42:35.846Z,23.00
2022-09-15T06:45:03.094Z,22.90
2022-09-15T06:47:34.089Z,22.80
2022-09-15T06:50:01.230Z,22.80
2022-09-15T06:52:28.133Z,22.70
2022-09-15T06:54:55.051Z,22.60
2022-09-15T06:57:21.791Z,22.60
2022-09-15T06:59:48.606Z,22.60
2022-09-15T07:02:15.560Z,22.50
2022-09-15T07:04:42.391Z,22.30
2022-09-15T07:07:09.274Z,21.90
2022-09-15T07:09:38.829Z,21.80
2022-09-15T07:12:08.235Z,21.60
2022-09-15T07:14:34.962Z,21.80
2022-09-15T07:17:01.834Z,21.90
2022-09-15T07:19:28.670Z,21.90
2022-09-15T07:21:55.398Z,22.00
2022-09-15T07:24:22.175Z,21.90
2022-09-15T07:26:48.962Z,21.90
2022-09-15T07:29:15.708Z,21.90
2022-09-15T07:31:42.506Z,21.80
2022-09-15T07:34:09.398Z,21.90
2022-09-15T07:36:36.261Z,21.90
2022-09-15T07:39:03.196Z,21.80
2022-09-15T07:41:30.307Z,22.00
2022-09-15T07:43:57.764Z,22.00
2022-09-15T07:46:24.696Z,22.00
2022-09-15T07:48:53.150Z,22.00
2022-09-15T07:51:20.172Z,21.70
2022-09-15T07:53:47.453Z,21.90
2022-09-15T07:56:14.298Z,22.00
2022-09-15T07:58:41.038Z,22.40
2022-09-15T08:01:08.284Z,22.50
2022-09-15T08:03:35.129Z,22.60
2022-09-15T08:06:02.262Z,23.00
2022-09-15T08:08:29.500Z,23.20
2022-09-15T08:10:56.284Z,23.40
2022-09-15T08:13:23.223Z,23.80
2022-09-15T08:15:50.871Z,23.90
2022-09-15T08:18:17.787Z,24.20
2022-09-15T08:20:44.580Z,24.50
2022-09-15T08:23:11.465Z,24.80
2022-09-15T08:25:38.786Z,25.10
2022-09-15T08:28:05.527Z,25.40
2022-09-15T08:30:32.337Z,25.60
2022-09-15T08:32:59.120Z,25.50
2022-09-15T08:35:25.844Z,25.70
2022-09-15T08:37:53.543Z,25.90
2022-09-15T08:40:21.801Z,26.10
2022-09-15T08:42:48.790Z,25.90
2022-09-15T08:45:42.050Z,26.60
2022-09-15T08:48:08.851Z,27.00
2022-09-15T08:50:38.903Z,26.80
2022-09-15T08:53:13.087Z,26.80
2022-09-15T08:55:43.223Z,26.90
2022-09-15T08:58:19.933Z,26.60
2022-09-15T09:00:47.411Z,26.50
2022-09-15T09:03:33.169Z,26.40
2022-09-15T09:06:05.816Z,26.20
2022-09-15T09:08:51.658Z,26.80
2022-09-15T09:11:27.739Z,27.50
2022-09-15T09:14:00.780Z,27.80
2022-09-15T09:16:27.537Z,27.70
2022-09-15T09:19:00.535Z,27.00
2022-09-15T09:21:30.144Z,27.50
2022-09-15T09:24:06.785Z,28.00
2022-09-15T09:26:35.062Z,28.40
2022-09-15T09:29:12.699Z,28.40
2022-09-15T09:31:39.882Z,28.20
2022-09-15T09:34:25.377Z,27.90
2022-09-15T09:36:57.492Z,27.70
2022-09-15T09:41:51.408Z,27.80
2022-09-15T09:44:19.231Z,27.90
2022-09-15T09:46:47.524Z,28.20
2022-09-15T09:49:16.944Z,28.10
2022-09-15T09:51:51.892Z,27.90
2022-09-15T09:54:20.865Z,27.80
2022-09-15T09:56:48.390Z,27.60
2022-09-15T09:59:31.609Z,27.70
2022-09-15T10:02:10.477Z,27.70
2022-09-15T10:04:40.422Z,27.90
2022-09-15T10:07:07.277Z,27.90
2022-09-15T10:09:34.181Z,27.70
2022-09-15T10:12:01.455Z,27.90
2022-09-15T10:14:30.217Z,27.80
2022-09-15T10:16:57.005Z,27.80
2022-09-15T10:19:24.593Z,27.90
2022-09-15T10:21:51.320Z,28.30
2022-09-15T10:24:26.942Z,28.70
2022-09-15T10:27:05.772Z,29.00
2022-09-15T10:29:42.233Z,29.00
2022-09-15T10:32:16.111Z,29.70
2022-09-15T10:34:44.125Z,30.40
2022-09-15T10:37:27.702Z,30.20
2022-09-15T10:39:58.803Z,30.80
2022-09-15T10:42:29.099Z,29.90
2022-09-15T10:44:55.913Z,29.80
2022-09-15T10:47:35.054Z,30.00
2022-09-15T10:50:21.546Z,29.90
2022-09-15T10:53:00.174Z,29.90
2022-09-15T10:55:51.216Z,30.50
2022-09-15T10:58:24.720Z,30.40
2022-09-15T11:00:55.454Z,31.00
2022-09-15T11:03:31.160Z,31.90
2022-09-15T11:05:57.885Z,30.70
2022-09-15T11:08:42.774Z,31.50
2022-09-15T11:11:22.783Z,31.60
2022-09-15T11:13:56.912Z,30.30
2022-09-15T11:16:29.415Z,30.10
2022-09-15T11:19:15.129Z,30.50
2022-09-15T11:21:48.010Z,30.80
2022-09-15T11:24:26.264Z,31.10
2022-09-15T11:26:55.139Z,30.90
2022-09-15T11:29:44.954Z,30.90
2022-09-15T11:32:12.376Z,31.10
2022-09-15T11:34:40.424Z,31.60
2022-09-15T11:37:10.031Z,31.80
2022-09-15T11:39:39.046Z,32.10
2022-09-15T11:42:13.903Z,33.20
2022-09-15T11:44:41.560Z,33.50
2022-09-15T11:47:13.895Z,34.20
2022-09-15T11:49:46.774Z,34.10
2022-09-15T11:52:33.797Z,34.70
2022-09-15T11:55:19.299Z,35.10
2022-09-15T11:57:47.992Z,36.20
2022-09-15T12:00:15.009Z,34.70
2022-09-15T12:03:02.098Z,34.10
2022-09-15T12:05:33.193Z,33.80
2022-09-15T12:08:02.139Z,34.40
2022-09-15T12:10:34.138Z,33.50
2022-09-15T12:13:00.915Z,32.80
2022-09-15T12:15:27.727Z,33.90
2022-09-15T12:17:58.197Z,34.50
2022-09-15T12:20:25.846Z,34.80
2022-09-15T12:23:18.866Z,34.20
2022-09-15T12:25:51.713Z,34.70
2022-09-15T12:28:21.602Z,34.70
2022-09-15T12:30:48.521Z,33.60
2022-09-15T12:33:33.845Z,34.00
2022-09-15T12:36:19.158Z,33.90
2022-09-15T12:38:49.496Z,34.30
2022-09-15T12:41:16.256Z,33.80
2022-09-15T12:43:46.051Z,33.60
2022-09-15T12:46:12.892Z,33.40
2022-09-15T12:48:46.758Z,33.80
2022-09-15T12:51:21.905Z,34.90
2022-09-15T12:53:58.723Z,35.10
2022-09-15T12:56:29.437Z,35.10
2022-09-15T12:58:56.360Z,34.30
2022-09-15T13:01:23.339Z,34.00
2022-09-15T13:03:50.216Z,33.90
2022-09-15T13:06:21.092Z,33.20
2022-09-15T13:08:48.856Z,33.00
2022-09-15T13:11:22.963Z,32.90
2022-09-15T13:14:08.007Z,32.30
2022-09-15T13:16:37.591Z,31.50
2022-09-15T13:19:09.049Z,31.10
2022-09-15T13:21:36.436Z,30.80
2022-09-15T13:24:03.470Z,30.80
2022-09-15T13:26:30.457Z,30.90
2022-09-15T13:28:57.705Z,30.50
2022-09-15T13:31:33.335Z,30.30
2022-09-15T13:39:37.082Z,30.50
2022-09-15T13:42:22.583Z,30.40
2022-09-15T13:44:52.179Z,30.40
2022-09-15T13:47:38.237Z,30.40
2022-09-15T13:50:19.768Z,30.50
2022-09-15T13:52:49.268Z,30.40
2022-09-15T13:55:21.693Z,30.40
2022-09-15T14:00:53.988Z,30.40
2022-09-15T14:03:37.102Z,30.60
2022-09-15T14:06:14.042Z,30.40
2022-09-15T14:08:41.203Z,30.20
2022-09-15T14:11:09.288Z,30.20
2022-09-15T14:13:36.592Z,30.20
2022-09-15T14:16:06.370Z,30.40
2022-09-15T14:18:42.835Z,30.20
2022-09-15T14:21:16.490Z,30.10
2022-09-15T14:23:53.253Z,30.00
2022-09-15T14:26:20.897Z,30.20
2022-09-15T14:28:51.446Z,30.40
2022-09-15T14:31:18.304Z,30.00
2022-09-15T14:33:45.128Z,30.00
2022-09-15T14:36:15.474Z,30.20
2022-09-15T14:38:42.329Z,30.10
2022-09-15T14:41:15.937Z,30.20
2022-09-15T14:43:42.766Z,30.00
2022-09-15T14:46:12.038Z,30.00
2022-09-15T14:48:38.841Z,29.80
2022-09-15T14:51:09.006Z,29.80
2022-09-15T14:53:36.144Z,29.80
2022-09-15T14:56:08.216Z,30.00
2022-09-15T14:58:35.286Z,29.70
2022-09-15T15:01:02.318Z,29.70
2022-09-15T15:03:35.604Z,29.80
2022-09-15T15:06:27.675Z,30.00
2022-09-15T15:09:05.759Z,29.80
2022-09-15T15:11:32.790Z,29.50
2022-09-15T15:13:59.843Z,29.40
2022-09-15T15:16:27.801Z,29.50
2022-09-15T15:18:57.081Z,29.40
2022-09-15T15:21:40.895Z,29.20
2022-09-15T15:24:17.458Z,29.20
2022-09-15T15:26:45.056Z,29.20
2022-09-15T15:29:30.677Z,29.20
2022-09-15T15:32:04.516Z,29.00
2022-09-15T15:34:31.670Z,29.00
2022-09-15T15:37:04.155Z,29.10
2022-09-15T15:39:31.080Z,29.00
2022-09-15T15:42:02.123Z,28.90
2022-09-15T15:44:29.326Z,29.00
2022-09-15T15:46:57.216Z,28.90
2022-09-15T15:49:25.970Z,28.80
2022-09-15T15:51:56.453Z,28.80
2022-09-15T15:54:23.553Z,28.80
2022-09-15T15:56:50.481Z,28.80
2022-09-15T15:59:17.371Z,28.80
2022-09-15T16:01:44.332Z,28.80
2022-09-15T16:04:12.904Z,28.60
2022-09-15T16:06:39.850Z,28.60
2022-09-15T16:09:06.617Z,28.50
2022-09-15T16:11:33.400Z,28.30
2022-09-15T16:14:00.162Z,28.40
2022-09-15T16:16:27.431Z,28.30
2022-09-15T16:18:54.681Z,28.30
2022-09-15T16:21:29.064Z,28.20
2022-09-15T16:23:55.796Z,28.10
2022-09-15T16:26:23.242Z,27.90
2022-09-15T16:28:50.022Z,27.80
2022-09-15T16:31:16.942Z,27.80
2022-09-15T16:33:43.738Z,27.70
2022-09-15T16:36:13.903Z,27.70
2022-09-15T16:38:41.350Z,27.80
2022-09-15T16:41:29.203Z,27.60
2022-09-15T16:43:56.289Z,27.70
2022-09-15T16:46:29.260Z,27.50
2022-09-15T16:49:02.187Z,27.40
2022-09-15T16:51:31.593Z,27.40
2022-09-15T16:54:05.198Z,27.50
2022-09-15T16:56:31.984Z,27.30
2022-09-15T16:59:00.575Z,27.50
2022-09-15T17:01:34.234Z,27.30
2022-09-15T17:04:01.973Z,27.30
2022-09-15T17:06:35.267Z,27.30
2022-09-15T17:09:02.105Z,27.40
2022-09-15T17:11:29.076Z,27.20
2022-09-15T17:13:56.067Z,27.30
2022-09-15T17:16:25.134Z,27.30
2022-09-15T17:18:51.925Z,27.20
2022-09-15T17:21:19.868Z,27.30
2022-09-15T17:23:47.284Z,27.40
2022-09-15T17:26:19.657Z,27.40
2022-09-15T17:28:46.522Z,27.40
2022-09-15T17:31:14.241Z,27.30
2022-09-15T17:33:43.549Z,27.30
2022-09-15T17:36:10.717Z,27.30
2022-09-15T17:38:37.854Z,27.40
2022-09-15T17:41:04.712Z,27.30
2022-09-15T17:43:32.025Z,27.30
2022-09-15T17:45:58.963Z,27.40
2022-09-15T17:48:25.853Z,27.40
2022-09-15T17:50:52.655Z,27.30
2022-09-15T17:53:23.244Z,27.20
2022-09-15T17:55:50.314Z,27.20
2022-09-15T17:58:17.170Z,27.10
2022-09-15T18:00:46.288Z,27.20
2022-09-15T18:03:18.179Z,27.20
2022-09-15T18:05:45.066Z,27.40
2022-09-15T18:08:12.044Z,27.40
2022-09-15T18:10:38.921Z,27.30
2022-09-15T18:13:10.580Z,27.40
2022-09-15T18:15:38.299Z,27.30
2022-09-15T18:18:08.669Z,27.30
2022-09-15T18:20:36.706Z,27.20
2022-09-15T18:23:03.625Z,27.20
2022-09-15T18:25:34.691Z,27.20
2022-09-15T18:28:03.266Z,27.10
2022-09-15T18:30:34.436Z,27.20
2022-09-15T18:33:02.332Z,27.10
2022-09-15T18:35:29.548Z,27.20
2022-09-15T18:38:00.177Z,27.10
2022-09-15T18:40:28.877Z,27.10
2022-09-15T18:42:56.778Z,26.90
2022-09-15T18:45:23.752Z,27.00
2022-09-15T18:47:50.842Z,27.00
2022-09-15T18:50:18.384Z,27.10
2022-09-15T18:52:45.144Z,26.80
2022-09-15T18:55:16.386Z,26.80
2022-09-15T18:57:43.193Z,26.90
2022-09-15T19:00:13.259Z,27.00
2022-09-15T19:02:40.398Z,27.00
2022-09-15T19:05:07.463Z,26.80
2022-09-15T19:07:36.923Z,26.90
2022-09-15T19:10:04.404Z,26.90
2022-09-15T19:12:51.956Z,26.70
2022-09-15T19:15:24.505Z,26.60
2022-09-15T19:20:47.521Z,26.60
2022-09-15T19:23:26.663Z,26.50
2022-09-15T19:25:58.374Z,26.40
2022-09-15T19:28:28.004Z,26.20
2022-09-15T19:30:55.372Z,26.20
2022-09-15T19:33:25.077Z,26.20
2022-09-15T19:36:04.906Z,26.40
2022-09-15T19:38:38.206Z,26.40
2022-09-15T19:41:08.972Z,26.30
2022-09-15T19:43:35.949Z,26.30
2022-09-15T19:46:03.234Z,26.30
2022-09-15T19:48:30.032Z,26.00
2022-09-15T19:50:56.942Z,26.00
2022-09-15T19:53:23.666Z,26.00
2022-09-15T19:55:51.029Z,25.90
2022-09-15T19:58:18.166Z,25.80
2022-09-15T20:00:45.151Z,25.80
2022-09-15T20:03:11.939Z,25.80
2022-09-15T20:05:38.699Z,25.80
2022-09-15T20:08:05.415Z,25.70
2022-09-15T20:10:32.186Z,25.60
2022-09-15T20:12:58.825Z,25.60
2022-09-15T20:15:25.590Z,25.60
2022-09-15T20:17:52.339Z,25.50
2022-09-15T20:20:19.027Z,25.60
2022-09-15T20:22:46.368Z,25.50
2022-09-15T20:25:16.019Z,25.30
2022-09-15T20:27:43.311Z,25.00
2022-09-15T20:30:22.220Z,24.60
2022-09-15T20:32:48.899Z,24.30
2022-09-15T20:35:15.791Z,24.10
2022-09-15T20:37:42.529Z,24.00
2022-09-15T20:40:12.195Z,23.90
2022-09-15T20:42:38.988Z,23.70
2022-09-15T20:45:06.604Z,23.50
2022-09-15T20:47:33.456Z,23.50
2022-09-15T20:50:00.191Z,23.50
2022-09-15T20:52:30.166Z,23.50
2022-09-15T20:54:58.522Z,23.50
2022-09-15T20:57:25.319Z,23.50
2022-09-15T20:59:52.086Z,23.50
2022-09-15T21:02:18.901Z,23.30
2022-09-15T21:04:45.904Z,23.20
2022-09-15T21:07:12.657Z,23.00
2022-09-15T21:09:39.385Z,22.80
2022-09-15T21:12:06.605Z,22.80
2022-09-15T21:14:33.349Z,22.50
2022-09-15T21:17:00.419Z,22.00
2022-09-15T21:19:27.188Z,22.10
2022-09-15T21:21:54.596Z,21.90
2022-09-15T21:24:22.622Z,22.20
2022-09-15T21:27:07.810Z,22.50
2022-09-15T21:29:34.606Z,22.60
2022-09-15T21:32:02.313Z,22.80
2022-09-15T21:34:29.111Z,22.80
2022-09-15T21:36:56.246Z,22.70
2022-09-15T21:39:23.088Z,22.60
2022-09-15T21:41:50.193Z,22.40
2022-09-15T21:44:16.941Z,22.40
2022-09-15T21:46:45.013Z,22.30
2022-09-15T21:49:11.776Z,22.30
2022-09-15T21:51:38.503Z,22.10
2022-09-15T21:54:05.316Z,22.20
2022-09-15T21:56:32.083Z,22.00
2022-09-15T21:58:58.886Z,21.60
2022-09-15T22:01:26.654Z,21.60
2022-09-15T22:03:57.248Z,21.60
2022-09-15T22:06:27.796Z,21.70
2022-09-15T22:08:55.053Z,21.60
2022-09-15T22:11:22.352Z,21.30
2022-09-15T22:13:49.539Z,21.20
2022-09-15T22:16:17.384Z,21.30
2022-09-15T22:18:44.444Z,21.20
2022-09-15T22:21:15.281Z,21.50
2022-09-15T22:23:42.683Z,21.70
2022-09-15T22:26:11.039Z,21.90
2022-09-15T22:28:37.886Z,22.00
2022-09-15T22:31:05.497Z,22.10
2022-09-15T22:33:32.333Z,22.10
2022-09-15T22:35:59.119Z,21.90
2022-09-15T22:38:26.931Z,21.80
2022-09-15T22:40:53.769Z,22.00
2022-09-15T22:43:20.590Z,22.10
2022-09-15T22:45:48.184Z,22.00
2022-09-15T22:48:15.032Z,22.00
2022-09-15T22:50:43.587Z,21.90
2022-09-15T22:53:10.382Z,21.70
2022-09-15T22:55:37.139Z,21.90
2022-09-15T22:58:04.002Z,21.70
2022-09-15T23:00:32.639Z,21.60
2022-09-15T23:02:59.723Z,21.30
2022-09-15T23:05:26.474Z,21.50
2022-09-15T23:07:53.286Z,21.50
2022-09-15T23:10:20.079Z,21.30
2022-09-15T23:12:46.860Z,21.20
2022-09-15T23:15:13.975Z,21.10
2022-09-15T23:17:40.775Z,21.20
2022-09-15T23:20:07.623Z,20.70
2022-09-15T23:22:34.376Z,20.70
2022-09-15T23:25:01.145Z,20.60
2022-09-15T23:27:27.898Z,20.80
2022-09-15T23:29:54.712Z,20.70
2022-09-15T23:32:21.435Z,20.80
2022-09-15T23:34:49.007Z,20.80
2022-09-15T23:37:15.931Z,21.00
2022-09-15T23:39:42.818Z,20.90
2022-09-15T23:42:09.614Z,20.90
2022-09-15T23:44:36.336Z,20.90
2022-09-15T23:47:03.183Z,21.00
2022-09-15T23:49:29.977Z,21.00
2022-09-15T23:51:56.688Z,20.80
2022-09-15T23:54:23.464Z,20.80
2022-09-15T23:56:50.182Z,20.60
2022-09-15T23:59:16.900Z,20.40
